sensor_id;sensor_type;location;lat;lon;timestamp;temperature;humidity
35962;DHT22;22044;48.298;10.008;2022-11-15T00:01:25;7.10;99.90
35962;DHT22;22044;48.298;10.008;2022-11-15T00:04:30;7.00;99.90
35962;DHT22;22044;48.298;10.008;2022-11-15T00:07:34;6.80;99.90
35962;DHT22;22044;48.298;10.008;2022-11-15T00:10:38;6.70;99.90
35962;DHT22;22044;48.298;10.008;2022-11-15T00:13:44;6.60;99.90
35962;DHT22;22044;48.298;10.008;2022-11-15T00:16:48;6.60;99.90
35962;DHT22;22044;48.298;10.008;2022-11-15T00:19:53;6.40;99.90
35962;DHT22;22044;48.298;10.008;2022-11-15T00:22:57;6.10;99.90
35962;DHT22;22044;48.298;10.008;2022-11-15T00:26:02;5.90;99.90
35962;DHT22;22044;48.298;10.008;2022-11-15T00:29:07;5.80;99.90
35962;DHT22;22044;48.298;10.008;2022-11-15T00:32:12;5.60;99.90
35962;DHT22;22044;48.298;10.008;2022-11-15T00:35:16;5.80;99.90
35962;DHT22;22044;48.298;10.008;2022-11-15T00:38:20;5.70;99.90
35962;DHT22;22044;48.298;10.008;2022-11-15T00:41:25;5.70;99.90
35962;DHT22;22044;48.298;10.008;2022-11-15T00:44:31;5.90;99.90
35962;DHT22;22044;48.298;10.008;2022-11-15T00:47:35;5.90;99.90
35962;DHT22;22044;48.298;10.008;2022-11-15T00:50:40;5.90;99.90
35962;DHT22;22044;48.298;10.008;2022-11-15T00:53:44;6.00;99.90
35962;DHT22;22044;48.298;10.008;2022-11-15T00:56:49;6.10;99.90
35962;DHT22;22044;48.298;10.008;2022-11-15T00:59:54;5.90;99.90
35962;DHT22;22044;48.298;10.008;2022-11-15T01:03:00;5.80;99.90
35962;DHT22;22044;48.298;10.008;2022-11-15T01:06:04;6.00;99.90
35962;DHT22;22044;48.298;10.008;2022-11-15T01:09:08;6.10;99.90
35962;DHT22;22044;48.298;10.008;2022-11-15T01:12:13;6.30;99.90
35962;DHT22;22044;48.298;10.008;2022-11-15T01:15:19;6.30;99.90
35962;DHT22;22044;48.298;10.008;2022-11-15T01:18:23;6.40;99.90
35962;DHT22;22044;48.298;10.008;2022-11-15T01:21:28;6.40;99.90
35962;DHT22;22044;48.298;10.008;2022-11-15T01:24:32;6.50;99.90
35962;DHT22;22044;48.298;10.008;2022-11-15T01:27:36;6.40;99.90
35962;DHT22;22044;48.298;10.008;2022-11-15T01:30:42;6.30;99.90
35962;DHT22;22044;48.298;10.008;2022-11-15T01:33:47;6.40;99.90
35962;DHT22;22044;48.298;10.008;2022-11-15T01:36:52;6.30;99.90
35962;DHT22;22044;48.298;10.008;2022-11-15T01:39:57;6.40;99.90
35962;DHT22;22044;48.298;10.008;2022-11-15T01:43:20;6.40;99.90
35962;DHT22;22044;48.298;10.008;2022-11-15T01:46:32;6.30;99.90
35962;DHT22;22044;48.298;10.008;2022-11-15T01:49:40;6.30;99.90
35962;DHT22;22044;48.298;10.008;2022-11-15T01:52:46;6.30;99.90
35962;DHT22;22044;48.298;10.008;2022-11-15T01:55:52;6.30;99.90
35962;DHT22;22044;48.298;10.008;2022-11-15T01:58:58;6.10;99.90
35962;DHT22;22044;48.298;10.008;2022-11-15T02:02:04;6.20;99.90
35962;DHT22;22044;48.298;10.008;2022-11-15T02:05:09;6.00;99.90
35962;DHT22;22044;48.298;10.008;2022-11-15T02:08:13;5.70;99.90
35962;DHT22;22044;48.298;10.008;2022-11-15T02:11:22;5.80;99.90
35962;DHT22;22044;48.298;10.008;2022-11-15T02:14:28;5.90;99.90
35962;DHT22;22044;48.298;10.008;2022-11-15T02:17:52;5.80;99.90
35962;DHT22;22044;48.298;10.008;2022-11-15T02:21:13;5.80;99.90
35962;DHT22;22044;48.298;10.008;2022-11-15T02:28:39;5.70;99.90
35962;DHT22;22044;48.298;10.008;2022-11-15T02:31:53;5.70;99.90
35962;DHT22;22044;48.298;10.008;2022-11-15T02:35:04;5.60;99.90
35962;DHT22;22044;48.298;10.008;2022-11-15T02:38:18;5.50;99.90
35962;DHT22;22044;48.298;10.008;2022-11-15T02:41:32;5.70;99.90
35962;DHT22;22044;48.298;10.008;2022-11-15T02:44:41;5.60;99.90
35962;DHT22;22044;48.298;10.008;2022-11-15T02:47:50;5.70;99.90
35962;DHT22;22044;48.298;10.008;2022-11-15T02:50:55;5.80;99.90
35962;DHT22;22044;48.298;10.008;2022-11-15T02:54:00;5.80;99.90
35962;DHT22;22044;48.298;10.008;2022-11-15T02:57:10;5.70;99.90
35962;DHT22;22044;48.298;10.008;2022-11-15T03:00:17;5.70;99.90
35962;DHT22;22044;48.298;10.008;2022-11-15T03:03:47;5.70;99.90
35962;DHT22;22044;48.298;10.008;2022-11-15T03:06:57;5.80;99.90
35962;DHT22;22044;48.298;10.008;2022-11-15T03:10:08;5.80;99.90
35962;DHT22;22044;48.298;10.008;2022-11-15T03:13:23;5.80;99.90
35962;DHT22;22044;48.298;10.008;2022-11-15T03:16:34;5.80;99.90
35962;DHT22;22044;48.298;10.008;2022-11-15T03:19:44;5.80;99.90
35962;DHT22;22044;48.298;10.008;2022-11-15T03:22:50;5.80;99.90
35962;DHT22;22044;48.298;10.008;2022-11-15T03:25:56;5.70;99.90
35962;DHT22;22044;48.298;10.008;2022-11-15T03:29:06;5.70;99.90
35962;DHT22;22044;48.298;10.008;2022-11-15T03:32:15;5.70;99.90
35962;DHT22;22044;48.298;10.008;2022-11-15T03:35:24;5.60;99.90
35962;DHT22;22044;48.298;10.008;2022-11-15T03:38:30;5.30;99.90
35962;DHT22;22044;48.298;10.008;2022-11-15T03:41:40;5.10;99.90
35962;DHT22;22044;48.298;10.008;2022-11-15T03:44:52;4.70;99.90
35962;DHT22;22044;48.298;10.008;2022-11-15T03:48:00;4.70;99.90
35962;DHT22;22044;48.298;10.008;2022-11-15T03:51:07;4.90;99.90
35962;DHT22;22044;48.298;10.008;2022-11-15T03:54:13;5.00;99.90
35962;DHT22;22044;48.298;10.008;2022-11-15T03:57:17;4.80;99.90
35962;DHT22;22044;48.298;10.008;2022-11-15T04:00:22;4.80;99.90
35962;DHT22;22044;48.298;10.008;2022-11-15T04:03:26;4.60;99.90
35962;DHT22;22044;48.298;10.008;2022-11-15T04:06:32;4.70;99.90
35962;DHT22;22044;48.298;10.008;2022-11-15T04:09:36;4.80;99.90
35962;DHT22;22044;48.298;10.008;2022-11-15T04:13:02;4.50;99.90
35962;DHT22;22044;48.298;10.008;2022-11-15T04:16:06;4.40;99.90
35962;DHT22;22044;48.298;10.008;2022-11-15T04:19:10;4.60;99.90
35962;DHT22;22044;48.298;10.008;2022-11-15T04:22:34;4.80;99.90
35962;DHT22;22044;48.298;10.008;2022-11-15T04:25:58;4.90;99.90
35962;DHT22;22044;48.298;10.008;2022-11-15T04:29:03;5.00;99.90
35962;DHT22;22044;48.298;10.008;2022-11-15T04:32:25;5.00;99.90
35962;DHT22;22044;48.298;10.008;2022-11-15T04:35:30;5.00;99.90
35962;DHT22;22044;48.298;10.008;2022-11-15T04:38:36;5.10;99.90
35962;DHT22;22044;48.298;10.008;2022-11-15T04:41:40;5.10;99.90
35962;DHT22;22044;48.298;10.008;2022-11-15T04:44:45;5.00;99.90
35962;DHT22;22044;48.298;10.008;2022-11-15T04:47:49;5.10;99.90
35962;DHT22;22044;48.298;10.008;2022-11-15T04:50:54;5.20;99.90
35962;DHT22;22044;48.298;10.008;2022-11-15T04:53:59;5.20;99.90
35962;DHT22;22044;48.298;10.008;2022-11-15T04:57:04;5.30;99.90
35962;DHT22;22044;48.298;10.008;2022-11-15T05:00:10;5.40;99.90
35962;DHT22;22044;48.298;10.008;2022-11-15T05:03:14;5.40;99.90
35962;DHT22;22044;48.298;10.008;2022-11-15T05:06:51;5.40;99.90
35962;DHT22;22044;48.298;10.008;2022-11-15T05:09:57;5.10;99.90
35962;DHT22;22044;48.298;10.008;2022-11-15T05:13:01;5.10;99.90
35962;DHT22;22044;48.298;10.008;2022-11-15T05:16:06;5.10;99.90
35962;DHT22;22044;48.298;10.008;2022-11-15T05:19:11;5.20;99.90
35962;DHT22;22044;48.298;10.008;2022-11-15T05:22:15;5.10;99.90
35962;DHT22;22044;48.298;10.008;2022-11-15T05:25:21;4.90;99.90
35962;DHT22;22044;48.298;10.008;2022-11-15T05:28:25;5.00;99.90
35962;DHT22;22044;48.298;10.008;2022-11-15T05:31:30;4.90;99.90
35962;DHT22;22044;48.298;10.008;2022-11-15T05:34:34;5.00;99.90
35962;DHT22;22044;48.298;10.008;2022-11-15T05:37:39;4.80;99.90
35962;DHT22;22044;48.298;10.008;2022-11-15T05:40:44;4.80;99.90
35962;DHT22;22044;48.298;10.008;2022-11-15T05:43:50;4.90;99.90
35962;DHT22;22044;48.298;10.008;2022-11-15T05:46:55;4.80;99.90
35962;DHT22;22044;48.298;10.008;2022-11-15T05:50:00;4.80;99.90
35962;DHT22;22044;48.298;10.008;2022-11-15T05:53:05;4.80;99.90
35962;DHT22;22044;48.298;10.008;2022-11-15T05:56:11;4.90;99.90
35962;DHT22;22044;48.298;10.008;2022-11-15T05:59:16;5.00;99.90
35962;DHT22;22044;48.298;10.008;2022-11-15T06:02:21;5.00;99.90
35962;DHT22;22044;48.298;10.008;2022-11-15T06:05:26;5.10;99.90
35962;DHT22;22044;48.298;10.008;2022-11-15T06:08:30;5.00;99.90
35962;DHT22;22044;48.298;10.008;2022-11-15T06:11:36;4.90;99.90
35962;DHT22;22044;48.298;10.008;2022-11-15T06:14:41;5.00;99.90
35962;DHT22;22044;48.298;10.008;2022-11-15T06:17:45;4.90;99.90
35962;DHT22;22044;48.298;10.008;2022-11-15T06:20:49;4.80;99.90
35962;DHT22;22044;48.298;10.008;2022-11-15T06:23:55;4.60;99.90
35962;DHT22;22044;48.298;10.008;2022-11-15T06:27:00;4.40;99.90
35962;DHT22;22044;48.298;10.008;2022-11-15T06:30:06;4.20;99.90
35962;DHT22;22044;48.298;10.008;2022-11-15T06:33:10;4.30;99.90
35962;DHT22;22044;48.298;10.008;2022-11-15T06:36:14;4.30;99.90
35962;DHT22;22044;48.298;10.008;2022-11-15T06:39:23;4.30;99.90
35962;DHT22;22044;48.298;10.008;2022-11-15T06:42:29;4.40;99.90
35962;DHT22;22044;48.298;10.008;2022-11-15T06:45:33;4.40;99.90
35962;DHT22;22044;48.298;10.008;2022-11-15T06:48:37;4.60;99.90
35962;DHT22;22044;48.298;10.008;2022-11-15T06:51:42;5.00;99.90
35962;DHT22;22044;48.298;10.008;2022-11-15T06:54:47;5.30;99.90
35962;DHT22;22044;48.298;10.008;2022-11-15T06:57:52;5.50;99.90
35962;DHT22;22044;48.298;10.008;2022-11-15T07:00:59;5.60;99.90
35962;DHT22;22044;48.298;10.008;2022-11-15T07:04:03;5.70;99.90
35962;DHT22;22044;48.298;10.008;2022-11-15T07:07:08;5.70;99.90
35962;DHT22;22044;48.298;10.008;2022-11-15T07:10:12;5.70;99.90
35962;DHT22;22044;48.298;10.008;2022-11-15T07:13:18;5.60;99.90
35962;DHT22;22044;48.298;10.008;2022-11-15T07:16:23;5.60;99.90
35962;DHT22;22044;48.298;10.008;2022-11-15T07:19:27;5.60;99.90
35962;DHT22;22044;48.298;10.008;2022-11-15T07:22:32;5.40;99.90
35962;DHT22;22044;48.298;10.008;2022-11-15T07:25:36;5.20;99.90
35962;DHT22;22044;48.298;10.008;2022-11-15T07:28:42;5.30;99.90
35962;DHT22;22044;48.298;10.008;2022-11-15T07:31:46;5.20;99.90
35962;DHT22;22044;48.298;10.008;2022-11-15T07:34:52;5.10;99.90
35962;DHT22;22044;48.298;10.008;2022-11-15T07:37:57;5.10;99.90
35962;DHT22;22044;48.298;10.008;2022-11-15T07:41:03;5.20;99.90
35962;DHT22;22044;48.298;10.008;2022-11-15T07:44:10;5.30;99.90
35962;DHT22;22044;48.298;10.008;2022-11-15T07:47:14;5.30;99.90
35962;DHT22;22044;48.298;10.008;2022-11-15T07:50:19;5.30;99.90
35962;DHT22;22044;48.298;10.008;2022-11-15T07:53:24;5.30;99.90
35962;DHT22;22044;48.298;10.008;2022-11-15T07:56:28;5.30;99.90
35962;DHT22;22044;48.298;10.008;2022-11-15T07:59:34;5.10;99.90
35962;DHT22;22044;48.298;10.008;2022-11-15T08:02:38;4.70;99.90
35962;DHT22;22044;48.298;10.008;2022-11-15T08:05:43;4.50;99.90
35962;DHT22;22044;48.298;10.008;2022-11-15T08:08:53;4.40;99.90
35962;DHT22;22044;48.298;10.008;2022-11-15T08:11:58;4.50;99.90
35962;DHT22;22044;48.298;10.008;2022-11-15T08:15:05;4.80;99.90
35962;DHT22;22044;48.298;10.008;2022-11-15T08:18:11;5.50;99.90
35962;DHT22;22044;48.298;10.008;2022-11-15T08:21:19;6.10;99.90
35962;DHT22;22044;48.298;10.008;2022-11-15T08:24:24;7.00;99.90
35962;DHT22;22044;48.298;10.008;2022-11-15T08:27:28;8.80;99.90
35962;DHT22;22044;48.298;10.008;2022-11-15T08:30:37;10.90;99.90
35962;DHT22;22044;48.298;10.008;2022-11-15T08:33:44;12.90;99.90
35962;DHT22;22044;48.298;10.008;2022-11-15T08:36:49;14.30;99.90
35962;DHT22;22044;48.298;10.008;2022-11-15T08:39:53;15.30;99.90
35962;DHT22;22044;48.298;10.008;2022-11-15T08:42:58;16.70;99.90
35962;DHT22;22044;48.298;10.008;2022-11-15T08:46:09;18.00;99.90
35962;DHT22;22044;48.298;10.008;2022-11-15T08:49:16;17.20;99.90
35962;DHT22;22044;48.298;10.008;2022-11-15T08:52:20;18.50;99.90
35962;DHT22;22044;48.298;10.008;2022-11-15T08:55:25;19.40;99.90
35962;DHT22;22044;48.298;10.008;2022-11-15T08:58:29;20.00;99.90
35962;DHT22;22044;48.298;10.008;2022-11-15T09:01:35;19.80;99.90
35962;DHT22;22044;48.298;10.008;2022-11-15T09:04:39;19.20;99.90
35962;DHT22;22044;48.298;10.008;2022-11-15T09:07:44;18.70;99.90
35962;DHT22;22044;48.298;10.008;2022-11-15T09:10:49;17.00;99.90
35962;DHT22;22044;48.298;10.008;2022-11-15T09:13:53;15.30;99.90
35962;DHT22;22044;48.298;10.008;2022-11-15T09:16:59;14.40;99.90
35962;DHT22;22044;48.298;10.008;2022-11-15T09:20:05;13.30;99.90
35962;DHT22;22044;48.298;10.008;2022-11-15T09:23:09;12.40;99.90
35962;DHT22;22044;48.298;10.008;2022-11-15T09:26:13;11.30;99.90
35962;DHT22;22044;48.298;10.008;2022-11-15T09:29:18;11.00;99.90
35962;DHT22;22044;48.298;10.008;2022-11-15T09:32:27;10.30;99.90
35962;DHT22;22044;48.298;10.008;2022-11-15T09:35:31;9.60;99.90
35962;DHT22;22044;48.298;10.008;2022-11-15T09:38:36;9.30;99.90
35962;DHT22;22044;48.298;10.008;2022-11-15T09:41:53;9.30;99.90
35962;DHT22;22044;48.298;10.008;2022-11-15T09:45:17;8.90;99.90
35962;DHT22;22044;48.298;10.008;2022-11-15T09:48:48;8.30;99.90
35962;DHT22;22044;48.298;10.008;2022-11-15T09:51:51;8.20;99.90
35962;DHT22;22044;48.298;10.008;2022-11-15T09:54:39;8.00;99.90
35962;DHT22;22044;48.298;10.008;2022-11-15T09:57:32;8.20;99.90
35962;DHT22;22044;48.298;10.008;2022-11-15T10:00:28;7.90;99.90
35962;DHT22;22044;48.298;10.008;2022-11-15T10:03:19;7.90;99.90
35962;DHT22;22044;48.298;10.008;2022-11-15T10:06:23;8.10;99.90
35962;DHT22;22044;48.298;10.008;2022-11-15T10:09:14;8.40;99.90
35962;DHT22;22044;48.298;10.008;2022-11-15T10:12:01;8.50;99.90
35962;DHT22;22044;48.298;10.008;2022-11-15T10:14:49;8.70;99.90
35962;DHT22;22044;48.298;10.008;2022-11-15T10:17:55;8.80;99.90
35962;DHT22;22044;48.298;10.008;2022-11-15T10:20:48;8.90;99.90
35962;DHT22;22044;48.298;10.008;2022-11-15T10:23:36;9.10;99.90
35962;DHT22;22044;48.298;10.008;2022-11-15T10:26:23;9.00;99.90
35962;DHT22;22044;48.298;10.008;2022-11-15T10:29:09;9.00;99.90
35962;DHT22;22044;48.298;10.008;2022-11-15T10:31:54;9.20;99.90
35962;DHT22;22044;48.298;10.008;2022-11-15T10:34:40;9.30;99.90
35962;DHT22;22044;48.298;10.008;2022-11-15T10:37:31;9.40;99.90
35962;DHT22;22044;48.298;10.008;2022-11-15T10:40:20;9.30;99.90
35962;DHT22;22044;48.298;10.008;2022-11-15T10:43:15;9.40;99.90
35962;DHT22;22044;48.298;10.008;2022-11-15T10:46:18;9.60;99.90
35962;DHT22;22044;48.298;10.008;2022-11-15T10:49:13;9.60;99.90
35962;DHT22;22044;48.298;10.008;2022-11-15T10:52:01;9.60;99.90
35962;DHT22;22044;48.298;10.008;2022-11-15T10:54:49;9.50;99.90
35962;DHT22;22044;48.298;10.008;2022-11-15T10:57:38;9.50;99.90
35962;DHT22;22044;48.298;10.008;2022-11-15T11:00:30;9.60;99.90
35962;DHT22;22044;48.298;10.008;2022-11-15T11:03:28;9.60;99.90
35962;DHT22;22044;48.298;10.008;2022-11-15T11:06:16;9.60;99.90
35962;DHT22;22044;48.298;10.008;2022-11-15T11:09:04;9.50;99.90
35962;DHT22;22044;48.298;10.008;2022-11-15T11:11:52;9.50;99.90
35962;DHT22;22044;48.298;10.008;2022-11-15T11:14:39;9.50;99.90
35962;DHT22;22044;48.298;10.008;2022-11-15T11:17:32;9.50;99.90
35962;DHT22;22044;48.298;10.008;2022-11-15T11:20:24;9.60;99.90
35962;DHT22;22044;48.298;10.008;2022-11-15T11:23:38;9.60;99.90
35962;DHT22;22044;48.298;10.008;2022-11-15T11:26:40;9.70;99.90
35962;DHT22;22044;48.298;10.008;2022-11-15T11:29:38;9.60;99.90
35962;DHT22;22044;48.298;10.008;2022-11-15T11:32:38;9.70;99.90
35962;DHT22;22044;48.298;10.008;2022-11-15T11:35:30;9.70;99.90
35962;DHT22;22044;48.298;10.008;2022-11-15T11:38:32;9.80;99.90
35962;DHT22;22044;48.298;10.008;2022-11-15T11:41:34;9.60;99.90
35962;DHT22;22044;48.298;10.008;2022-11-15T11:44:30;9.70;99.90
35962;DHT22;22044;48.298;10.008;2022-11-15T11:47:22;9.80;99.90
35962;DHT22;22044;48.298;10.008;2022-11-15T11:50:13;9.90;99.90
35962;DHT22;22044;48.298;10.008;2022-11-15T11:53:03;9.90;99.90
35962;DHT22;22044;48.298;10.008;2022-11-15T11:55:53;10.00;99.90
35962;DHT22;22044;48.298;10.008;2022-11-15T11:58:42;10.10;99.90
35962;DHT22;22044;48.298;10.008;2022-11-15T12:01:32;10.20;99.90
35962;DHT22;22044;48.298;10.008;2022-11-15T12:04:27;10.30;99.90
35962;DHT22;22044;48.298;10.008;2022-11-15T12:07:18;10.50;99.90
35962;DHT22;22044;48.298;10.008;2022-11-15T12:10:15;10.50;99.90
35962;DHT22;22044;48.298;10.008;2022-11-15T12:13:06;10.60;99.90
35962;DHT22;22044;48.298;10.008;2022-11-15T12:15:57;10.60;99.90
35962;DHT22;22044;48.298;10.008;2022-11-15T12:18:49;10.60;99.90
35962;DHT22;22044;48.298;10.008;2022-11-15T12:21:41;10.50;99.90
35962;DHT22;22044;48.298;10.008;2022-11-15T12:24:32;10.60;99.90
35962;DHT22;22044;48.298;10.008;2022-11-15T12:27:25;10.70;99.90
35962;DHT22;22044;48.298;10.008;2022-11-15T12:30:16;10.60;99.90
35962;DHT22;22044;48.298;10.008;2022-11-15T12:33:03;10.60;99.90
35962;DHT22;22044;48.298;10.008;2022-11-15T12:35:58;10.70;99.90
35962;DHT22;22044;48.298;10.008;2022-11-15T12:38:55;10.80;99.90
35962;DHT22;22044;48.298;10.008;2022-11-15T12:41:42;10.90;99.90
35962;DHT22;22044;48.298;10.008;2022-11-15T12:44:58;10.70;99.90
35962;DHT22;22044;48.298;10.008;2022-11-15T12:47:44;10.80;99.90
35962;DHT22;22044;48.298;10.008;2022-11-15T12:50:56;10.80;99.90
35962;DHT22;22044;48.298;10.008;2022-11-15T12:53:42;10.80;99.90
35962;DHT22;22044;48.298;10.008;2022-11-15T12:56:29;10.80;99.90
35962;DHT22;22044;48.298;10.008;2022-11-15T12:59:47;10.80;99.90
35962;DHT22;22044;48.298;10.008;2022-11-15T13:02:35;10.90;99.90
35962;DHT22;22044;48.298;10.008;2022-11-15T13:05:56;10.80;99.90
35962;DHT22;22044;48.298;10.008;2022-11-15T13:08:48;10.80;99.90
35962;DHT22;22044;48.298;10.008;2022-11-15T13:11:50;10.80;99.90
35962;DHT22;22044;48.298;10.008;2022-11-15T13:14:50;10.70;99.90
35962;DHT22;22044;48.298;10.008;2022-11-15T13:17:37;10.70;99.90
35962;DHT22;22044;48.298;10.008;2022-11-15T13:20:26;10.70;99.90
35962;DHT22;22044;48.298;10.008;2022-11-15T13:23:15;10.80;99.90
35962;DHT22;22044;48.298;10.008;2022-11-15T13:26:12;10.90;99.90
35962;DHT22;22044;48.298;10.008;2022-11-15T13:29:02;10.90;99.90
35962;DHT22;22044;48.298;10.008;2022-11-15T13:31:48;10.90;99.90
35962;DHT22;22044;48.298;10.008;2022-11-15T13:34:34;10.90;99.90
35962;DHT22;22044;48.298;10.008;2022-11-15T13:37:29;10.90;99.90
35962;DHT22;22044;48.298;10.008;2022-11-15T13:40:24;10.80;99.90
35962;DHT22;22044;48.298;10.008;2022-11-15T13:43:26;10.80;99.90
35962;DHT22;22044;48.298;10.008;2022-11-15T13:46:16;10.80;99.90
35962;DHT22;22044;48.298;10.008;2022-11-15T13:49:04;10.80;99.90
35962;DHT22;22044;48.298;10.008;2022-11-15T13:51:51;10.80;99.90
35962;DHT22;22044;48.298;10.008;2022-11-15T13:54:41;10.80;99.90
35962;DHT22;22044;48.298;10.008;2022-11-15T13:57:31;10.80;99.90
35962;DHT22;22044;48.298;10.008;2022-11-15T14:00:42;10.80;99.90
35962;DHT22;22044;48.298;10.008;2022-11-15T14:03:32;10.80;99.90
35962;DHT22;22044;48.298;10.008;2022-11-15T14:06:19;10.80;99.90
35962;DHT22;22044;48.298;10.008;2022-11-15T14:09:31;10.80;99.90
35962;DHT22;22044;48.298;10.008;2022-11-15T14:12:25;10.80;99.90
35962;DHT22;22044;48.298;10.008;2022-11-15T14:15:28;10.90;99.90
35962;DHT22;22044;48.298;10.008;2022-11-15T14:18:40;10.90;99.90
35962;DHT22;22044;48.298;10.008;2022-11-15T14:21:26;10.80;99.90
35962;DHT22;22044;48.298;10.008;2022-11-15T14:24:16;10.80;99.90
35962;DHT22;22044;48.298;10.008;2022-11-15T14:27:19;10.80;99.90
35962;DHT22;22044;48.298;10.008;2022-11-15T14:30:11;10.80;99.90
35962;DHT22;22044;48.298;10.008;2022-11-15T14:32:57;10.80;99.90
35962;DHT22;22044;48.298;10.008;2022-11-15T14:35:44;10.80;99.90
35962;DHT22;22044;48.298;10.008;2022-11-15T14:38:30;10.70;99.90
35962;DHT22;22044;48.298;10.008;2022-11-15T14:41:20;10.80;99.90
35962;DHT22;22044;48.298;10.008;2022-11-15T14:44:09;10.70;99.90
35962;DHT22;22044;48.298;10.008;2022-11-15T14:46:56;10.60;99.90
35962;DHT22;22044;48.298;10.008;2022-11-15T14:49:41;10.50;99.90
35962;DHT22;22044;48.298;10.008;2022-11-15T14:52:30;10.40;99.90
35962;DHT22;22044;48.298;10.008;2022-11-15T14:55:20;10.40;99.90
35962;DHT22;22044;48.298;10.008;2022-11-15T14:58:08;10.40;99.90
35962;DHT22;22044;48.298;10.008;2022-11-15T15:00:53;10.40;99.90
35962;DHT22;22044;48.298;10.008;2022-11-15T15:03:39;10.40;99.90
35962;DHT22;22044;48.298;10.008;2022-11-15T15:06:25;10.40;99.90
35962;DHT22;22044;48.298;10.008;2022-11-15T15:09:12;10.40;99.90
35962;DHT22;22044;48.298;10.008;2022-11-15T15:11:57;10.40;99.90
35962;DHT22;22044;48.298;10.008;2022-11-15T15:14:43;10.40;99.90
35962;DHT22;22044;48.298;10.008;2022-11-15T15:17:29;10.40;99.90
35962;DHT22;22044;48.298;10.008;2022-11-15T15:20:15;10.20;99.90
35962;DHT22;22044;48.298;10.008;2022-11-15T15:23:01;10.30;99.90
35962;DHT22;22044;48.298;10.008;2022-11-15T15:25:48;10.30;99.90
35962;DHT22;22044;48.298;10.008;2022-11-15T15:28:34;10.40;99.90
35962;DHT22;22044;48.298;10.008;2022-11-15T15:31:21;10.50;99.90
35962;DHT22;22044;48.298;10.008;2022-11-15T15:34:06;10.50;99.90
35962;DHT22;22044;48.298;10.008;2022-11-15T15:37:07;10.50;99.90
35962;DHT22;22044;48.298;10.008;2022-11-15T15:39:53;10.60;99.90
35962;DHT22;22044;48.298;10.008;2022-11-15T15:42:40;10.60;99.90
35962;DHT22;22044;48.298;10.008;2022-11-15T15:45:26;10.70;99.90
35962;DHT22;22044;48.298;10.008;2022-11-15T15:48:14;10.70;99.90
35962;DHT22;22044;48.298;10.008;2022-11-15T15:51:01;10.70;99.90
35962;DHT22;22044;48.298;10.008;2022-11-15T15:53:47;10.60;99.90
35962;DHT22;22044;48.298;10.008;2022-11-15T15:56:32;10.50;99.90
35962;DHT22;22044;48.298;10.008;2022-11-15T15:59:19;10.50;99.90
35962;DHT22;22044;48.298;10.008;2022-11-15T16:02:05;10.40;99.90
35962;DHT22;22044;48.298;10.008;2022-11-15T16:04:51;10.00;99.90
35962;DHT22;22044;48.298;10.008;2022-11-15T16:07:37;9.80;99.90
35962;DHT22;22044;48.298;10.008;2022-11-15T16:10:24;9.70;99.90
35962;DHT22;22044;48.298;10.008;2022-11-15T16:13:10;9.80;99.90
35962;DHT22;22044;48.298;10.008;2022-11-15T16:15:57;9.90;99.90
35962;DHT22;22044;48.298;10.008;2022-11-15T16:18:43;9.90;99.90
35962;DHT22;22044;48.298;10.008;2022-11-15T16:21:29;9.90;99.90
35962;DHT22;22044;48.298;10.008;2022-11-15T16:24:14;9.90;99.90
35962;DHT22;22044;48.298;10.008;2022-11-15T16:27:00;9.80;99.90
35962;DHT22;22044;48.298;10.008;2022-11-15T16:29:46;9.80;99.90
35962;DHT22;22044;48.298;10.008;2022-11-15T16:32:34;9.80;99.90
35962;DHT22;22044;48.298;10.008;2022-11-15T16:35:19;9.80;99.90
35962;DHT22;22044;48.298;10.008;2022-11-15T16:38:05;9.80;99.90
35962;DHT22;22044;48.298;10.008;2022-11-15T16:40:50;9.90;99.90
35962;DHT22;22044;48.298;10.008;2022-11-15T16:43:36;9.90;99.90
35962;DHT22;22044;48.298;10.008;2022-11-15T16:46:23;9.90;99.90
35962;DHT22;22044;48.298;10.008;2022-11-15T16:49:12;9.90;99.90
35962;DHT22;22044;48.298;10.008;2022-11-15T16:51:58;9.90;99.90
35962;DHT22;22044;48.298;10.008;2022-11-15T16:54:44;10.00;99.90
35962;DHT22;22044;48.298;10.008;2022-11-15T16:57:29;9.90;99.90
35962;DHT22;22044;48.298;10.008;2022-11-15T17:00:16;10.00;99.90
35962;DHT22;22044;48.298;10.008;2022-11-15T17:03:02;10.00;99.90
35962;DHT22;22044;48.298;10.008;2022-11-15T17:05:49;10.00;99.90
35962;DHT22;22044;48.298;10.008;2022-11-15T17:08:35;10.00;99.90
35962;DHT22;22044;48.298;10.008;2022-11-15T17:11:21;10.00;99.90
35962;DHT22;22044;48.298;10.008;2022-11-15T17:14:07;10.00;99.90
35962;DHT22;22044;48.298;10.008;2022-11-15T17:16:52;10.00;99.90
35962;DHT22;22044;48.298;10.008;2022-11-15T17:19:38;10.00;99.90
35962;DHT22;22044;48.298;10.008;2022-11-15T17:22:25;9.90;99.90
35962;DHT22;22044;48.298;10.008;2022-11-15T17:25:10;9.70;99.90
35962;DHT22;22044;48.298;10.008;2022-11-15T17:27:56;9.50;99.90
35962;DHT22;22044;48.298;10.008;2022-11-15T17:30:43;9.50;99.90
35962;DHT22;22044;48.298;10.008;2022-11-15T17:33:28;9.30;99.90
35962;DHT22;22044;48.298;10.008;2022-11-15T17:36:15;9.00;99.90
35962;DHT22;22044;48.298;10.008;2022-11-15T17:39:03;8.90;99.90
35962;DHT22;22044;48.298;10.008;2022-11-15T17:41:48;8.80;99.90
35962;DHT22;22044;48.298;10.008;2022-11-15T17:44:34;8.60;99.90
35962;DHT22;22044;48.298;10.008;2022-11-15T17:47:20;8.80;99.90
35962;DHT22;22044;48.298;10.008;2022-11-15T17:50:06;8.80;99.90
35962;DHT22;22044;48.298;10.008;2022-11-15T17:52:52;8.80;99.90
35962;DHT22;22044;48.298;10.008;2022-11-15T17:55:39;8.70;99.90
35962;DHT22;22044;48.298;10.008;2022-11-15T17:58:25;8.60;99.90
35962;DHT22;22044;48.298;10.008;2022-11-15T18:01:15;8.60;99.90
35962;DHT22;22044;48.298;10.008;2022-11-15T18:04:03;8.60;99.90
35962;DHT22;22044;48.298;10.008;2022-11-15T18:06:49;8.50;99.90
35962;DHT22;22044;48.298;10.008;2022-11-15T18:09:35;8.60;99.90
35962;DHT22;22044;48.298;10.008;2022-11-15T18:12:23;8.70;99.90
35962;DHT22;22044;48.298;10.008;2022-11-15T18:15:09;8.80;99.90
35962;DHT22;22044;48.298;10.008;2022-11-15T18:17:54;8.90;99.90
35962;DHT22;22044;48.298;10.008;2022-11-15T18:20:40;9.00;99.90
35962;DHT22;22044;48.298;10.008;2022-11-15T18:23:25;9.10;99.90
35962;DHT22;22044;48.298;10.008;2022-11-15T18:26:12;9.10;99.90
35962;DHT22;22044;48.298;10.008;2022-11-15T18:29:03;9.10;99.90
35962;DHT22;22044;48.298;10.008;2022-11-15T18:31:49;9.20;99.90
35962;DHT22;22044;48.298;10.008;2022-11-15T18:34:38;9.10;99.90
35962;DHT22;22044;48.298;10.008;2022-11-15T18:37:24;8.90;99.90
35962;DHT22;22044;48.298;10.008;2022-11-15T18:40:10;8.90;99.90
35962;DHT22;22044;48.298;10.008;2022-11-15T18:42:55;8.80;99.90
35962;DHT22;22044;48.298;10.008;2022-11-15T18:45:42;8.90;99.90